createdAt,value
2016-12-23T00:00:36.115Z,1030.75
2016-12-23T00:01:58.193Z,1030.72
2016-12-23T00:03:19.952Z,1030.59
2016-12-23T00:04:41.826Z,1030.59
2016-12-23T00:06:03.580Z,1030.51
2016-12-23T00:07:25.993Z,1030.57
2016-12-23T00:08:47.774Z,1030.6
2016-12-23T00:10:10.158Z,1030.59
2016-12-23T00:11:32.535Z,1030.61
2016-12-23T00:12:54.598Z,1030.7
2016-12-23T00:14:16.461Z,1030.7
2016-12-23T00:15:38.851Z,1030.75
2016-12-23T00:17:00.976Z,1030.81
2016-12-23T00:18:23.052Z,1030.78
2016-12-23T00:19:45.514Z,1030.77
2016-12-23T00:21:06.960Z,1030.73
2016-12-23T00:22:29.109Z,1030.78
2016-12-23T00:23:51.504Z,1030.78
2016-12-23T00:25:12.705Z,1030.81
2016-12-23T00:26:34.446Z,1030.81
2016-12-23T00:27:56.642Z,1030.9
2016-12-23T00:29:19.027Z,1030.86
2016-12-23T00:30:40.146Z,1030.77
2016-12-23T00:32:02.197Z,1030.8
2016-12-23T00:33:24.346Z,1030.74
2016-12-23T00:34:46.183Z,1030.84
2016-12-23T00:36:08.244Z,1030.83
2016-12-23T00:37:29.386Z,1030.84
2016-12-23T00:38:51.134Z,1030.87
2016-12-23T00:40:12.897Z,1030.87
2016-12-23T00:41:34.669Z,1030.86
2016-12-23T00:42:56.733Z,1030.92
2016-12-23T00:44:18.164Z,1030.98
2016-12-23T00:45:40.237Z,1031.05
2016-12-23T00:47:02.297Z,1031.11
2016-12-23T00:48:24.728Z,1031.02
2016-12-23T00:49:46.486Z,1031
2016-12-23T00:51:08.241Z,1031.07
2016-12-23T00:52:30.305Z,1031.11
2016-12-23T00:53:52.678Z,1031.03
2016-12-23T00:55:14.142Z,1031.03
2016-12-23T00:56:36.507Z,1030.96
2016-12-23T00:57:58.259Z,1031.01
2016-12-23T00:59:20.692Z,1031.02
2016-12-23T01:00:42.161Z,1031.04
2016-12-23T01:02:04.217Z,1030.93
2016-12-23T01:03:26.022Z,1030.96
2016-12-23T01:04:48.187Z,1030.91
2016-12-23T01:06:10.346Z,1030.91
2016-12-23T01:07:31.778Z,1030.9
2016-12-23T01:08:53.228Z,1030.92
2016-12-23T01:10:15.628Z,1030.99
2016-12-23T01:11:37.388Z,1030.94
2016-12-23T01:12:59.146Z,1030.97
2016-12-23T01:14:20.971Z,1030.99
2016-12-23T01:15:42.488Z,1031.05
2016-12-23T01:17:04.550Z,1031.11
2016-12-23T01:18:26.627Z,1031.08
2016-12-23T01:19:48.348Z,1031.03
2016-12-23T01:21:10.843Z,1031.04
2016-12-23T01:22:32.978Z,1031.02
2016-12-23T01:23:55.022Z,1030.99
2016-12-23T01:25:17.409Z,1031.08
2016-12-23T01:26:39.456Z,1031.06
2016-12-23T01:28:00.897Z,1031.05
2016-12-23T01:29:23.088Z,1031.04
2016-12-23T01:30:44.258Z,1031.06
2016-12-23T01:32:06.134Z,1031.1
2016-12-23T01:33:28.195Z,1030.99
2016-12-23T01:34:50.599Z,1031.03
2016-12-23T01:36:12.688Z,1031
2016-12-23T01:37:34.157Z,1031.04
2016-12-23T01:38:55.923Z,1031.05
2016-12-23T01:40:17.677Z,1031.04
2016-12-23T01:41:39.120Z,1031.06
2016-12-23T01:43:01.185Z,1031.05
2016-12-23T01:44:22.925Z,1031.02
2016-12-23T01:45:44.978Z,1031.01
2016-12-23T01:47:06.728Z,1031.05
2016-12-23T01:48:28.780Z,1031.06
2016-12-23T01:49:51.165Z,1031.07
2016-12-23T01:51:13.264Z,1031.14
2016-12-23T01:52:35.608Z,1031.18
2016-12-23T01:53:57.962Z,1031.11
2016-12-23T01:55:20.016Z,1031.15
2016-12-23T01:56:42.391Z,1031.21
2016-12-23T01:58:03.857Z,1031.23
2016-12-23T01:59:25.607Z,1031.25
2016-12-23T02:00:46.729Z,1031.24
2016-12-23T02:02:08.539Z,1031.26
2016-12-23T02:03:30.728Z,1031.24
2016-12-23T02:04:52.166Z,1031.26
2016-12-23T02:06:14.636Z,1031.28
2016-12-23T02:07:36.995Z,1031.27
2016-12-23T02:08:58.749Z,1031.26
2016-12-23T02:10:20.497Z,1031.23
2016-12-23T02:11:42.296Z,1031.23
2016-12-23T02:13:04.366Z,1031.18
2016-12-23T02:14:26.108Z,1031.24
2016-12-23T02:15:48.517Z,1031.18
2016-12-23T02:17:10.633Z,1031.17
2016-12-23T02:18:32.181Z,1031.22
2016-12-23T02:19:54.299Z,1031.23
2016-12-23T02:21:16.055Z,1031.22
2016-12-23T02:22:37.504Z,1031.26
2016-12-23T02:23:59.567Z,1031.2
2016-12-23T02:25:21.640Z,1031.14
2016-12-23T02:26:43.690Z,1031.21
2016-12-23T02:28:06.095Z,1031.19
2016-12-23T02:29:27.954Z,1031.25
2016-12-23T02:30:49.689Z,1031.24
2016-12-23T02:32:12.132Z,1031.23
2016-12-23T02:33:34.002Z,1031.21
2016-12-23T02:34:56.061Z,1031.23
2016-12-23T02:36:18.173Z,1031.22
2016-12-23T02:37:40.321Z,1031.23
2016-12-23T02:39:02.427Z,1031.16
2016-12-23T02:40:24.475Z,1031.17
2016-12-23T02:41:46.755Z,1031.16
2016-12-23T02:43:08.631Z,1031.12
2016-12-23T02:44:30.105Z,1031.15
2016-12-23T02:45:52.203Z,1031.18
2016-12-23T02:47:46.581Z,1031.19
2016-12-23T02:49:08.430Z,1031.24
2016-12-23T02:50:29.595Z,1031.2
2016-12-23T02:51:51.038Z,1031.25
2016-12-23T02:53:13.536Z,1031.26
2016-12-23T02:54:35.722Z,1031.27
2016-12-23T02:55:57.493Z,1031.26
2016-12-23T02:57:19.561Z,1031.29
2016-12-23T02:58:40.979Z,1031.22
2016-12-23T03:00:02.835Z,1031.23
2016-12-23T03:01:24.585Z,1031.19
2016-12-23T03:02:46.960Z,1031.18
2016-12-23T03:04:09.020Z,1031.14
2016-12-23T03:05:31.085Z,1031.15
2016-12-23T03:06:53.453Z,1031.13
2016-12-23T03:08:15.216Z,1031.11
2016-12-23T03:09:37.290Z,1031.1
2016-12-23T03:10:59.416Z,1031.18
2016-12-23T03:12:21.162Z,1031.22
2016-12-23T03:13:43.325Z,1031.15
2016-12-23T03:15:05.387Z,1031.1
2016-12-23T03:16:27.464Z,1031.07
2016-12-23T03:17:49.966Z,1030.99
2016-12-23T03:19:12.037Z,1031.05
2016-12-23T03:20:34.390Z,1031.08
2016-12-23T03:21:56.576Z,1031.07
2016-12-23T03:23:18.446Z,1031
2016-12-23T03:24:40.502Z,1031.04
2016-12-23T03:26:02.582Z,1031.05
2016-12-23T03:27:24.327Z,1031.09
2016-12-23T03:28:45.757Z,1031.1
2016-12-23T03:30:07.826Z,1031.05
2016-12-23T03:31:29.260Z,1031.11
2016-12-23T03:32:51.317Z,1031.11
2016-12-23T03:34:13.068Z,1031.04
2016-12-23T03:35:35.124Z,1031.11
2016-12-23T03:36:57.190Z,1031.11
2016-12-23T03:38:18.938Z,1031.08
2016-12-23T03:39:41.104Z,1031.12
2016-12-23T03:41:02.970Z,1031.04
2016-12-23T03:42:25.024Z,1031.11
2016-12-23T03:43:46.874Z,1031.03
2016-12-23T03:45:08.304Z,1031.08
2016-12-23T03:46:29.728Z,1031.14
2016-12-23T03:47:51.855Z,1031.14
2016-12-23T03:49:14.236Z,1031.16
2016-12-23T03:50:35.992Z,1031.11
2016-12-23T03:51:58.357Z,1031.12
2016-12-23T03:53:20.502Z,1031.15
2016-12-23T03:54:42.267Z,1031.14
2016-12-23T03:56:04.320Z,1031.18
2016-12-23T03:57:26.047Z,1031.17
2016-12-23T03:58:48.592Z,1031.13
2016-12-23T04:00:10.343Z,1031.13
2016-12-23T04:01:32.180Z,1031.1
2016-12-23T04:02:54.389Z,1031.16
2016-12-23T04:04:16.453Z,1031.18
2016-12-23T04:05:38.207Z,1031.21
2016-12-23T04:06:59.634Z,1031.21
2016-12-23T04:08:21.700Z,1031.21
2016-12-23T04:09:44.140Z,1031.23
2016-12-23T04:11:05.627Z,1031.19
2016-12-23T04:12:27.633Z,1031.23
2016-12-23T04:13:49.455Z,1031.28
2016-12-23T04:15:11.209Z,1031.27
2016-12-23T04:16:33.254Z,1031.27
2016-12-23T04:17:55.351Z,1031.26
2016-12-23T04:19:17.115Z,1031.29
2016-12-23T04:20:38.303Z,1031.29
2016-12-23T04:22:00.355Z,1031.29
2016-12-23T04:23:21.794Z,1031.39
2016-12-23T04:24:43.857Z,1031.33
2016-12-23T04:26:06.084Z,1031.33
2016-12-23T04:27:27.975Z,1031.29
2016-12-23T04:28:50.176Z,1031.28
2016-12-23T04:30:11.985Z,1031.28
2016-12-23T04:31:34.075Z,1031.22
2016-12-23T04:32:55.937Z,1031.26
2016-12-23T04:34:17.985Z,1031.23
2016-12-23T04:35:40.021Z,1031.3
2016-12-23T04:37:02.457Z,1031.26
2016-12-23T04:38:24.099Z,1031.25
2016-12-23T04:39:45.236Z,1031.22
2016-12-23T04:41:06.987Z,1031.22
2016-12-23T04:42:28.852Z,1031.24
2016-12-23T04:43:51.311Z,1031.21
2016-12-23T04:45:13.052Z,1031.22
2016-12-23T04:46:34.796Z,1031.22
2016-12-23T04:47:56.804Z,1031.19
2016-12-23T04:49:18.291Z,1031.14
2016-12-23T04:50:40.396Z,1031.11
2016-12-23T04:52:02.775Z,1031.1
2016-12-23T04:53:24.593Z,1031.02
2016-12-23T04:54:46.977Z,1031.06
2016-12-23T04:56:09.046Z,1031.07
2016-12-23T04:57:30.790Z,1031.07
2016-12-23T04:58:52.857Z,1031.1
2016-12-23T05:00:14.606Z,1031.17
2016-12-23T05:01:36.362Z,1031.2
2016-12-23T05:02:58.310Z,1031.2
2016-12-23T05:04:19.415Z,1031.22
2016-12-23T05:05:41.488Z,1031.16
2016-12-23T05:07:03.554Z,1031.17
2016-12-23T05:08:25.316Z,1031.13
2016-12-23T05:09:47.677Z,1031.21
2016-12-23T05:11:10.102Z,1031.18
2016-12-23T05:12:32.575Z,1031.21
2016-12-23T05:13:54.417Z,1031.19
2016-12-23T05:15:15.877Z,1031.21
2016-12-23T05:16:37.932Z,1031.17
2016-12-23T05:18:00.134Z,1031.2
2016-12-23T05:19:22.164Z,1031.19
2016-12-23T05:20:44.696Z,1031.22
2016-12-23T05:22:06.326Z,1031.24
2016-12-23T05:23:28.147Z,1031.29
2016-12-23T05:24:50.213Z,1031.35
2016-12-23T05:26:11.381Z,1031.4
2016-12-23T05:27:32.896Z,1031.38
2016-12-23T05:28:54.054Z,1031.36
2016-12-23T05:30:15.840Z,1031.41
2016-12-23T05:31:38.200Z,1031.46
2016-12-23T05:33:00.249Z,1031.48
2016-12-23T05:34:21.702Z,1031.51
2016-12-23T05:35:43.534Z,1031.57
2016-12-23T05:37:05.305Z,1031.6
2016-12-23T05:38:27.136Z,1031.65
2016-12-23T05:39:48.934Z,1031.62
2016-12-23T05:41:10.972Z,1031.58
2016-12-23T05:42:32.263Z,1031.6
2016-12-23T05:43:54.136Z,1031.57
2016-12-23T05:45:16.529Z,1031.61
2016-12-23T05:46:38.785Z,1031.59
2016-12-23T05:48:00.835Z,1031.58
2016-12-23T05:49:22.935Z,1031.57
2016-12-23T05:50:44.680Z,1031.54
2016-12-23T05:52:07.125Z,1031.62
2016-12-23T05:53:28.887Z,1031.6
2016-12-23T05:54:50.959Z,1031.68
2016-12-23T05:56:13.137Z,1031.71
2016-12-23T05:57:34.976Z,1031.74
2016-12-23T05:58:56.726Z,1031.72
2016-12-23T06:00:18.588Z,1031.71
2016-12-23T06:01:39.797Z,1031.72
2016-12-23T06:03:01.548Z,1031.72
2016-12-23T06:04:24.737Z,1031.69
2016-12-23T06:05:46.794Z,1031.66
2016-12-23T06:07:08.864Z,1031.66
2016-12-23T06:08:30.964Z,1031.67
2016-12-23T06:09:53.028Z,1031.64
2016-12-23T06:11:14.514Z,1031.71
2016-12-23T06:12:36.727Z,1031.73
2016-12-23T06:13:58.890Z,1031.7
2016-12-23T06:15:20.945Z,1031.74
2016-12-23T06:16:43.307Z,1031.77
2016-12-23T06:18:05.345Z,1031.73
2016-12-23T06:19:27.444Z,1031.74
2016-12-23T06:20:49.206Z,1031.78
2016-12-23T06:22:10.435Z,1031.73
2016-12-23T06:23:31.286Z,1031.74
2016-12-23T06:24:53.775Z,1031.72
2016-12-23T06:26:15.847Z,1031.7
2016-12-23T06:27:37.308Z,1031.71
2016-12-23T06:28:59.431Z,1031.7
2016-12-23T06:30:21.197Z,1031.67
2016-12-23T06:31:42.393Z,1031.68
2016-12-23T06:33:04.065Z,1031.7
2016-12-23T06:34:26.127Z,1031.69
2016-12-23T06:35:47.926Z,1031.66
2016-12-23T06:37:10.137Z,1031.67
2016-12-23T06:38:32.219Z,1031.68
2016-12-23T06:39:53.967Z,1031.68
2016-12-23T06:41:15.421Z,1031.72
2016-12-23T06:42:37.166Z,1031.74
2016-12-23T06:43:58.931Z,1031.74
2016-12-23T06:45:20.980Z,1031.71
2016-12-23T06:46:42.704Z,1031.78
2016-12-23T06:48:04.835Z,1031.75
2016-12-23T06:49:26.893Z,1031.78
2016-12-23T06:50:49.026Z,1031.81
2016-12-23T06:52:10.497Z,1031.81
2016-12-23T06:53:32.395Z,1031.8
2016-12-23T06:54:54.506Z,1031.79
2016-12-23T06:56:16.562Z,1031.81
2016-12-23T06:57:38.628Z,1031.82
2016-12-23T06:59:00.817Z,1031.81
2016-12-23T07:00:23.181Z,1031.78
2016-12-23T07:01:45.552Z,1031.8
2016-12-23T07:03:07.004Z,1031.82
2016-12-23T07:04:29.228Z,1031.85
2016-12-23T07:05:51.295Z,1031.82
2016-12-23T07:07:13.459Z,1031.82
2016-12-23T07:08:35.200Z,1031.89
2016-12-23T07:09:56.958Z,1031.94
2016-12-23T07:11:18.720Z,1031.89
2016-12-23T07:12:40.883Z,1031.85
2016-12-23T07:14:02.336Z,1031.91
2016-12-23T07:15:24.438Z,1031.85
2016-12-23T07:16:46.211Z,1031.88
2016-12-23T07:18:07.645Z,1031.89
2016-12-23T07:19:29.832Z,1031.95
2016-12-23T07:20:52.215Z,1031.94
2016-12-23T07:22:13.751Z,1031.96
2016-12-23T07:23:36.133Z,1032.01
2016-12-23T07:24:57.655Z,1032.04
2016-12-23T07:26:19.727Z,1032.05
2016-12-23T07:27:41.207Z,1032.01
2016-12-23T07:29:02.794Z,1032.06
2016-12-23T07:30:24.245Z,1032.11
2016-12-23T07:31:46.032Z,1032.18
2016-12-23T07:33:07.464Z,1032.25
2016-12-23T07:34:29.261Z,1032.21
2016-12-23T07:35:51.337Z,1032.18
2016-12-23T07:37:13.545Z,1032.25
2016-12-23T07:38:35.381Z,1032.26
2016-12-23T07:39:57.163Z,1032.28
2016-12-23T07:41:18.605Z,1032.26
2016-12-23T07:42:40.978Z,1032.22
2016-12-23T07:44:03.487Z,1032.21
2016-12-23T07:45:25.861Z,1032.19
2016-12-23T07:46:47.965Z,1032.18
2016-12-23T07:48:10.127Z,1032.21
2016-12-23T07:49:32.186Z,1032.19
2016-12-23T07:50:54.034Z,1032.13
2016-12-23T07:52:16.482Z,1032.11
2016-12-23T07:53:38.255Z,1032.2
2016-12-23T07:55:00.314Z,1032.28
2016-12-23T07:56:22.704Z,1032.3
2016-12-23T07:57:44.216Z,1032.23
2016-12-23T07:59:06.437Z,1032.28
2016-12-23T08:00:28.527Z,1032.31
2016-12-23T08:01:51.074Z,1032.28
2016-12-23T08:03:13.466Z,1032.31
2016-12-23T08:04:35.837Z,1032.35
2016-12-23T08:05:57.803Z,1032.28
2016-12-23T08:07:19.935Z,1032.33
2016-12-23T08:08:42.391Z,1032.31
2016-12-23T08:10:03.836Z,1032.33
2016-12-23T08:11:25.305Z,1032.34
2016-12-23T08:12:47.375Z,1032.33
2016-12-23T08:14:08.836Z,1032.33
2016-12-23T08:15:30.903Z,1032.31
2016-12-23T08:16:53.204Z,1032.35
2016-12-23T08:18:14.975Z,1032.32
2016-12-23T08:19:36.809Z,1032.38
2016-12-23T08:20:58.739Z,1032.35
2016-12-23T08:22:20.819Z,1032.32
2016-12-23T08:23:42.284Z,1032.33
2016-12-23T08:25:04.419Z,1032.31
2016-12-23T08:26:25.858Z,1032.27
2016-12-23T08:27:48.354Z,1032.29
2016-12-23T08:29:10.113Z,1032.3
2016-12-23T08:30:32.214Z,1032.27
2016-12-23T08:31:53.976Z,1032.3
2016-12-23T08:33:15.744Z,1032.32
2016-12-23T08:34:38.112Z,1032.32
2016-12-23T08:35:59.852Z,1032.29
2016-12-23T08:37:21.612Z,1032.31
2016-12-23T08:38:44.102Z,1032.31
2016-12-23T08:40:05.577Z,1032.35
2016-12-23T08:41:27.108Z,1032.4
2016-12-23T08:42:49.186Z,1032.34
2016-12-23T08:44:11.561Z,1032.38
2016-12-23T08:45:33.375Z,1032.34
2016-12-23T08:46:54.806Z,1032.33
2016-12-23T08:48:16.655Z,1032.33
2016-12-23T08:49:37.808Z,1032.4
2016-12-23T08:50:59.563Z,1032.34
2016-12-23T08:52:21.308Z,1032.35
2016-12-23T08:53:43.360Z,1032.37
2016-12-23T08:55:05.452Z,1032.46
2016-12-23T08:56:27.521Z,1032.41
2016-12-23T08:57:49.920Z,1032.43
2016-12-23T08:59:12.562Z,1032.44
2016-12-23T09:00:34.814Z,1032.48
2016-12-23T09:01:56.913Z,1032.56
2016-12-23T09:03:19.006Z,1032.52
2016-12-23T09:04:41.414Z,1032.56
2016-12-23T09:06:03.490Z,1032.59
2016-12-23T09:07:25.591Z,1032.57
2016-12-23T09:08:47.370Z,1032.55
2016-12-23T09:10:09.291Z,1032.55
2016-12-23T09:11:31.540Z,1032.55
2016-12-23T09:12:53.300Z,1032.51
2016-12-23T09:14:15.050Z,1032.56
2016-12-23T09:15:37.155Z,1032.52
2016-12-23T09:16:59.231Z,1032.55
2016-12-23T09:18:21.611Z,1032.6
2016-12-23T09:19:43.722Z,1032.63
2016-12-23T09:21:05.472Z,1032.66
2016-12-23T09:22:26.754Z,1032.63
2016-12-23T09:23:48.820Z,1032.64
2016-12-23T09:25:10.281Z,1032.64
2016-12-23T09:26:32.049Z,1032.62
2016-12-23T09:27:53.881Z,1032.64
2016-12-23T09:29:15.372Z,1032.64
2016-12-23T09:30:36.931Z,1032.7
2016-12-23T09:31:58.690Z,1032.69
2016-12-23T09:33:20.810Z,1032.67
2016-12-23T09:34:42.002Z,1032.68
2016-12-23T09:36:04.118Z,1032.72
2016-12-23T09:37:25.560Z,1032.75
2016-12-23T09:38:46.748Z,1032.76
2016-12-23T09:40:08.500Z,1032.76
2016-12-23T09:41:30.421Z,1032.84
2016-12-23T09:42:52.801Z,1032.84
2016-12-23T09:44:14.670Z,1032.9
2016-12-23T09:45:36.221Z,1032.91
2016-12-23T09:46:58.286Z,1032.96
2016-12-23T09:48:20.401Z,1032.96
2016-12-23T09:49:42.772Z,1032.99
2016-12-23T09:51:04.519Z,1033.01
2016-12-23T09:52:26.922Z,1032.99
2016-12-23T09:53:49.072Z,1033.01
2016-12-23T09:55:10.843Z,1033
2016-12-23T09:56:33.203Z,1033.06
2016-12-23T09:57:55.648Z,1033.1
2016-12-23T09:59:17.691Z,1033.02
2016-12-23T10:00:39.133Z,1033.04
2016-12-23T10:02:00.617Z,1033.03
2016-12-23T10:03:22.974Z,1032.97
2016-12-23T10:04:44.492Z,1032.99
2016-12-23T10:06:06.379Z,1033
2016-12-23T10:07:28.152Z,1032.98
2016-12-23T10:08:50.546Z,1032.97
2016-12-23T10:10:12.316Z,1032.87
2016-12-23T10:11:34.732Z,1032.94
2016-12-23T10:12:56.803Z,1032.92
2016-12-23T10:14:18.992Z,1032.89
2016-12-23T10:15:41.063Z,1032.82
2016-12-23T10:17:02.837Z,1032.82
2016-12-23T10:18:24.904Z,1032.87
2016-12-23T10:19:47.441Z,1032.85
2016-12-23T10:21:09.503Z,1032.9
2016-12-23T10:22:30.943Z,1032.88
2016-12-23T10:23:52.713Z,1032.91
2016-12-23T10:25:14.885Z,1032.83
2016-12-23T10:26:37.112Z,1032.84
2016-12-23T10:27:59.188Z,1032.82
2016-12-23T10:29:21.552Z,1032.78
2016-12-23T10:30:43.660Z,1032.85
2016-12-23T10:32:06.149Z,1032.82
2016-12-23T10:33:28.255Z,1032.83
2016-12-23T10:34:50.410Z,1032.78
2016-12-23T10:36:12.813Z,1032.79
2016-12-23T10:37:34.684Z,1032.76
2016-12-23T10:38:57.063Z,1032.66
2016-12-23T10:40:19.642Z,1032.63
2016-12-23T10:42:13.416Z,1032.68
2016-12-23T10:43:35.782Z,1032.68
2016-12-23T10:44:57.614Z,1032.67
2016-12-23T10:46:19.713Z,1032.68
2016-12-23T10:47:42.185Z,1032.69
2016-12-23T10:49:04.744Z,1032.71
2016-12-23T10:50:27.134Z,1032.71
2016-12-23T10:51:49.524Z,1032.72
2016-12-23T10:53:11.935Z,1032.67
2016-12-23T10:54:34.437Z,1032.65
2016-12-23T10:55:56.518Z,1032.64
2016-12-23T10:57:17.826Z,1032.61
2016-12-23T10:58:40.244Z,1032.56
2016-12-23T11:00:02.398Z,1032.52
2016-12-23T11:01:24.800Z,1032.49
2016-12-23T11:02:46.566Z,1032.45
2016-12-23T11:04:09.002Z,1032.36
2016-12-23T11:05:31.425Z,1032.34
2016-12-23T11:06:53.804Z,1032.3
2016-12-23T11:08:16.310Z,1032.32
2016-12-23T11:09:38.364Z,1032.39
2016-12-23T11:11:00.445Z,1032.39
2016-12-23T11:12:22.555Z,1032.38
2016-12-23T11:13:45.077Z,1032.41
2016-12-23T11:15:07.443Z,1032.34
2016-12-23T11:16:29.323Z,1032.31
2016-12-23T11:17:51.694Z,1032.31
2016-12-23T11:19:13.458Z,1032.29
2016-12-23T11:20:35.509Z,1032.2
2016-12-23T11:21:57.584Z,1032.25
2016-12-23T11:23:20.026Z,1032.21
2016-12-23T11:24:42.613Z,1032.23
2016-12-23T11:26:04.984Z,1032.2
2016-12-23T11:27:27.486Z,1032.13
2016-12-23T11:28:49.554Z,1032.12
2016-12-23T11:30:11.938Z,1032.06
2016-12-23T11:31:34.008Z,1032.06
2016-12-23T11:32:56.183Z,1031.96
2016-12-23T11:34:18.599Z,1031.96
2016-12-23T11:35:40.416Z,1031.93
2016-12-23T11:37:02.509Z,1031.95
2016-12-23T11:38:24.072Z,1031.93
2016-12-23T11:39:46.233Z,1031.87
2016-12-23T11:41:08.345Z,1031.87
2016-12-23T11:42:30.735Z,1031.84
2016-12-23T11:43:52.625Z,1031.92
2016-12-23T11:45:14.589Z,1031.87
2016-12-23T11:46:36.990Z,1031.9
2016-12-23T11:47:59.144Z,1031.87
2016-12-23T11:49:20.915Z,1031.88
2016-12-23T11:50:43.334Z,1031.88
2016-12-23T11:52:05.417Z,1031.9
2016-12-23T11:53:27.197Z,1031.81
2016-12-23T11:54:48.953Z,1031.76
2016-12-23T11:56:11.023Z,1031.79
2016-12-23T11:57:33.120Z,1031.77
2016-12-23T11:58:55.192Z,1031.71
2016-12-23T12:00:17.389Z,1031.7
2016-12-23T12:01:39.461Z,1031.69
2016-12-23T12:03:01.922Z,1031.69
2016-12-23T12:04:24.358Z,1031.61
2016-12-23T12:05:46.215Z,1031.67
2016-12-23T12:07:08.426Z,1031.69
2016-12-23T12:08:30.814Z,1031.63
2016-12-23T12:09:52.921Z,1031.57
2016-12-23T12:11:14.723Z,1031.6
2016-12-23T12:12:36.593Z,1031.58
2016-12-23T12:13:58.462Z,1031.65
2016-12-23T12:15:20.667Z,1031.66
2016-12-23T12:16:42.614Z,1031.71
2016-12-23T12:18:04.708Z,1031.71
2016-12-23T12:19:26.855Z,1031.64
2016-12-23T12:20:49.268Z,1031.59
2016-12-23T12:22:11.464Z,1031.53
2016-12-23T12:23:33.843Z,1031.39
2016-12-23T12:24:56.084Z,1031.37
2016-12-23T12:26:17.897Z,1031.24
2016-12-23T12:27:40.317Z,1031.23
2016-12-23T12:29:02.466Z,1031.22
2016-12-23T12:30:23.912Z,1031.24
2016-12-23T12:31:45.702Z,1031.3
2016-12-23T12:33:08.106Z,1031.33
2016-12-23T12:34:30.594Z,1031.28
2016-12-23T12:35:52.474Z,1031.2
2016-12-23T12:37:14.538Z,1031.17
2016-12-23T12:38:36.906Z,1031.18
2016-12-23T12:39:59.073Z,1031.14
2016-12-23T12:41:21.508Z,1031.08
2016-12-23T12:42:44.003Z,1031.06
2016-12-23T12:44:06.393Z,1031
2016-12-23T12:45:28.445Z,1030.94
2016-12-23T12:46:50.533Z,1030.94
2016-12-23T12:48:12.948Z,1030.91
2016-12-23T12:49:34.712Z,1030.91
2016-12-23T12:50:56.795Z,1030.82
2016-12-23T12:52:19.184Z,1030.88
2016-12-23T12:53:41.284Z,1030.77
2016-12-23T12:55:03.536Z,1030.81
2016-12-23T12:56:25.635Z,1030.77
2016-12-23T12:57:47.764Z,1030.7
2016-12-23T12:59:09.522Z,1030.67
2016-12-23T13:00:32.010Z,1030.68
2016-12-23T13:01:54.447Z,1030.65
2016-12-23T13:03:16.817Z,1030.64
2016-12-23T13:04:38.595Z,1030.62
2016-12-23T13:06:00.685Z,1030.63
2016-12-23T13:07:23.067Z,1030.62
2016-12-23T13:08:45.127Z,1030.68
2016-12-23T13:10:07.626Z,1030.56
2016-12-23T13:11:29.708Z,1030.57
2016-12-23T13:12:51.819Z,1030.6
2016-12-23T13:14:13.574Z,1030.6
2016-12-23T13:15:35.066Z,1030.56
2016-12-23T13:16:57.614Z,1030.48
2016-12-23T13:18:19.394Z,1030.51
2016-12-23T13:19:41.759Z,1030.43
2016-12-23T13:21:04.160Z,1030.43
2016-12-23T13:22:25.931Z,1030.37
2016-12-23T13:23:48.321Z,1030.37
2016-12-23T13:25:09.772Z,1030.36
2016-12-23T13:26:31.844Z,1030.34
2016-12-23T13:27:54.414Z,1030.35
2016-12-23T13:29:16.175Z,1030.31
2016-12-23T13:30:37.948Z,1030.27
2016-12-23T13:32:00.020Z,1030.25
2016-12-23T13:33:21.785Z,1030.25
2016-12-23T13:34:44.145Z,1030.24
2016-12-23T13:36:06.287Z,1030.23
2016-12-23T13:37:28.342Z,1030.24
2016-12-23T13:38:50.905Z,1030.21
2016-12-23T13:40:12.706Z,1030.24
2016-12-23T13:41:34.607Z,1030.25
2016-12-23T13:42:56.669Z,1030.2
2016-12-23T13:44:18.756Z,1030.17
2016-12-23T13:45:40.839Z,1030.15
2016-12-23T13:47:02.907Z,1030.11
2016-12-23T13:48:24.972Z,1030.09
2016-12-23T13:49:47.365Z,1029.99
2016-12-23T13:51:09.768Z,1029.95
2016-12-23T13:52:32.314Z,1029.91
2016-12-23T13:53:54.455Z,1029.86
2016-12-23T13:55:15.929Z,1029.84
2016-12-23T13:56:38.024Z,1029.82
2016-12-23T13:58:00.400Z,1029.8
2016-12-23T13:59:22.909Z,1029.85
2016-12-23T14:00:45.011Z,1029.83
2016-12-23T14:02:07.516Z,1029.84
2016-12-23T14:03:29.586Z,1029.82
2016-12-23T14:04:51.764Z,1029.85
2016-12-23T14:06:14.156Z,1029.82
2016-12-23T14:07:36.557Z,1029.77
2016-12-23T14:08:58.666Z,1029.75
2016-12-23T14:10:21.100Z,1029.71
2016-12-23T14:11:43.510Z,1029.7
2016-12-23T14:13:05.575Z,1029.71
2016-12-23T14:14:27.721Z,1029.7
2016-12-23T14:15:49.807Z,1029.66
2016-12-23T14:17:12.185Z,1029.65
2016-12-23T14:18:34.404Z,1029.62
2016-12-23T14:19:56.675Z,1029.6
2016-12-23T14:21:18.572Z,1029.62
2016-12-23T14:22:41.008Z,1029.6
2016-12-23T14:24:03.112Z,1029.58
2016-12-23T14:25:24.893Z,1029.59
2016-12-23T14:26:46.657Z,1029.59
2016-12-23T14:28:08.817Z,1029.56
2016-12-23T14:29:31.207Z,1029.57
2016-12-23T14:30:52.939Z,1029.55
2016-12-23T14:32:31.414Z,1029.53
2016-12-23T14:33:53.810Z,1029.52
2016-12-23T14:35:16.215Z,1029.48
2016-12-23T14:36:37.963Z,1029.43
2016-12-23T14:37:59.105Z,1029.47
2016-12-23T14:39:21.493Z,1029.47
2016-12-23T14:40:43.554Z,1029.41
2016-12-23T14:42:05.694Z,1029.39
2016-12-23T14:43:28.207Z,1029.41
2016-12-23T14:44:50.285Z,1029.38
2016-12-23T14:46:12.384Z,1029.39
2016-12-23T14:47:34.187Z,1029.32
2016-12-23T14:48:56.674Z,1029.32
2016-12-23T14:50:18.777Z,1029.33
2016-12-23T14:51:41.207Z,1029.29
2016-12-23T14:53:03.562Z,1029.27
2016-12-23T14:54:25.323Z,1029.3
2016-12-23T14:55:47.416Z,1029.25
2016-12-23T14:57:09.196Z,1029.24
2016-12-23T14:58:31.567Z,1029.21
2016-12-23T14:59:53.667Z,1029.23
2016-12-23T15:01:15.775Z,1029.25
2016-12-23T15:02:37.374Z,1029.25
2016-12-23T15:03:59.448Z,1029.24
2016-12-23T15:05:21.579Z,1029.23
2016-12-23T15:06:43.965Z,1029.21
2016-12-23T15:08:06.461Z,1029.22
2016-12-23T15:09:28.353Z,1029.18
2016-12-23T15:10:50.133Z,1029.18
2016-12-23T15:12:12.224Z,1029.15
2016-12-23T15:13:34.314Z,1029.18
2016-12-23T15:14:56.853Z,1029.12
2016-12-23T15:16:19.031Z,1029.11
2016-12-23T15:18:13.150Z,1029.11
2016-12-23T15:19:35.535Z,1029.05
2016-12-23T15:20:57.604Z,1029.1
2016-12-23T15:22:20.040Z,1029.01
2016-12-23T15:23:41.492Z,1029.02
2016-12-23T15:25:03.255Z,1028.95
2016-12-23T15:26:25.307Z,1028.98
2016-12-23T15:27:47.805Z,1029.01
2016-12-23T15:29:09.562Z,1028.95
2016-12-23T15:30:31.385Z,1029.01
2016-12-23T15:31:53.755Z,1028.98
2016-12-23T15:33:15.652Z,1029.02
2016-12-23T15:34:37.801Z,1028.97
2016-12-23T15:36:00.201Z,1028.93
2016-12-23T15:37:21.979Z,1028.89
2016-12-23T15:38:44.105Z,1028.94
2016-12-23T15:40:05.561Z,1028.93
2016-12-23T15:41:27.322Z,1028.87
2016-12-23T15:42:49.188Z,1028.81
2016-12-23T15:44:11.281Z,1028.74
2016-12-23T15:45:33.521Z,1028.72
2016-12-23T15:46:55.646Z,1028.73
2016-12-23T15:48:17.712Z,1028.74
2016-12-23T15:49:39.158Z,1028.71
2016-12-23T15:51:00.922Z,1028.66
2016-12-23T15:52:22.123Z,1028.64
2016-12-23T15:53:44.301Z,1028.57
2016-12-23T15:55:06.447Z,1028.55
2016-12-23T15:56:28.206Z,1028.51
2016-12-23T15:57:50.577Z,1028.49
2016-12-23T15:59:11.802Z,1028.51
2016-12-23T16:00:34.194Z,1028.49
2016-12-23T16:01:55.710Z,1028.47
2016-12-23T16:03:17.804Z,1028.51
2016-12-23T16:04:40.550Z,1028.47
2016-12-23T16:06:02.020Z,1028.49
2016-12-23T16:07:24.132Z,1028.42
2016-12-23T16:08:46.049Z,1028.37
2016-12-23T16:10:08.439Z,1028.38
2016-12-23T16:11:30.908Z,1028.37
2016-12-23T16:12:53.010Z,1028.35
2016-12-23T16:14:14.932Z,1028.31
2016-12-23T16:15:36.731Z,1028.31
2016-12-23T16:16:58.803Z,1028.21
2016-12-23T16:18:20.879Z,1028.21
2016-12-23T16:19:42.952Z,1028.18
2016-12-23T16:21:04.855Z,1028.03
2016-12-23T16:22:26.648Z,1028.15
2016-12-23T16:23:48.432Z,1028.15
2016-12-23T16:25:10.834Z,1028.09
2016-12-23T16:26:33.235Z,1028.06
2016-12-23T16:27:55.603Z,1028.02
2016-12-23T16:29:17.384Z,1028
2016-12-23T16:30:39.151Z,1027.95
2016-12-23T16:32:01.215Z,1027.95
2016-12-23T16:33:23.297Z,1027.87
2016-12-23T16:34:45.354Z,1027.88
2016-12-23T16:36:07.723Z,1027.85
2016-12-23T16:37:29.564Z,1027.84